sensor_id;sensor_type;location;lat;lon;timestamp;P1;durP1;ratioP1;P2;durP2;ratioP2
24901;SDS011;31328;51.402;0.016;2022-10-30T00:00:30;9.93;;;2.85;;
24901;SDS011;31328;51.402;0.016;2022-10-30T00:02:56;14.48;;;2.78;;
24901;SDS011;31328;51.402;0.016;2022-10-30T00:05:23;13.20;;;3.17;;
24901;SDS011;31328;51.402;0.016;2022-10-30T00:07:49;13.05;;;3.13;;
24901;SDS011;31328;51.402;0.016;2022-10-30T00:10:16;12.77;;;3.15;;
24901;SDS011;31328;51.402;0.016;2022-10-30T00:12:43;10.20;;;2.85;;
24901;SDS011;31328;51.402;0.016;2022-10-30T00:15:09;9.63;;;2.85;;
24901;SDS011;31328;51.402;0.016;2022-10-30T00:17:36;14.10;;;3.22;;
24901;SDS011;31328;51.402;0.016;2022-10-30T00:20:03;7.95;;;2.65;;
24901;SDS011;31328;51.402;0.016;2022-10-30T00:22:29;10.95;;;2.97;;
24901;SDS011;31328;51.402;0.016;2022-10-30T00:24:56;8.13;;;2.58;;
24901;SDS011;31328;51.402;0.016;2022-10-30T00:27:22;12.13;;;2.83;;
24901;SDS011;31328;51.402;0.016;2022-10-30T00:29:48;11.38;;;2.95;;
24901;SDS011;31328;51.402;0.016;2022-10-30T00:32:15;10.65;;;3.17;;
24901;SDS011;31328;51.402;0.016;2022-10-30T00:34:42;14.25;;;3.50;;
24901;SDS011;31328;51.402;0.016;2022-10-30T00:37:08;10.02;;;3.25;;
24901;SDS011;31328;51.402;0.016;2022-10-30T00:39:37;12.50;;;3.40;;
24901;SDS011;31328;51.402;0.016;2022-10-30T00:42:03;11.63;;;3.92;;
24901;SDS011;31328;51.402;0.016;2022-10-30T00:46:56;9.00;;;3.20;;
24901;SDS011;31328;51.402;0.016;2022-10-30T00:49:32;12.15;;;3.10;;
24901;SDS011;31328;51.402;0.016;2022-10-30T00:52:02;10.38;;;3.20;;
24901;SDS011;31328;51.402;0.016;2022-10-30T00:54:32;11.52;;;3.33;;
24901;SDS011;31328;51.402;0.016;2022-10-30T00:57:01;9.73;;;3.42;;
24901;SDS011;31328;51.402;0.016;2022-10-30T00:59:30;9.93;;;2.67;;
24901;SDS011;31328;51.402;0.016;2022-10-30T01:01:59;9.00;;;3.00;;
24901;SDS011;31328;51.402;0.016;2022-10-30T01:04:29;13.93;;;3.75;;
24901;SDS011;31328;51.402;0.016;2022-10-30T01:06:58;12.13;;;3.92;;
24901;SDS011;31328;51.402;0.016;2022-10-30T01:09:27;11.98;;;3.08;;
24901;SDS011;31328;51.402;0.016;2022-10-30T01:11:53;13.10;;;3.67;;
24901;SDS011;31328;51.402;0.016;2022-10-30T01:14:22;11.40;;;3.00;;
24901;SDS011;31328;51.402;0.016;2022-10-30T01:19:25;14.55;;;3.75;;
24901;SDS011;31328;51.402;0.016;2022-10-30T01:31:24;10.55;;;2.55;;
24901;SDS011;31328;51.402;0.016;2022-10-30T01:36:58;11.65;;;2.60;;
24901;SDS011;31328;51.402;0.016;2022-10-30T01:39:31;7.63;;;2.00;;
24901;SDS011;31328;51.402;0.016;2022-10-30T01:45:03;10.43;;;2.50;;
24901;SDS011;31328;51.402;0.016;2022-10-30T01:47:36;11.80;;;2.35;;
24901;SDS011;31328;51.402;0.016;2022-10-30T01:53:11;6.68;;;2.22;;
24901;SDS011;31328;51.402;0.016;2022-10-30T01:58:19;10.05;;;2.35;;
24901;SDS011;31328;51.402;0.016;2022-10-30T02:00:57;10.02;;;1.95;;
24901;SDS011;31328;51.402;0.016;2022-10-30T02:03:25;9.32;;;2.10;;
24901;SDS011;31328;51.402;0.016;2022-10-30T02:05:52;4.28;;;2.10;;
24901;SDS011;31328;51.402;0.016;2022-10-30T02:08:20;10.30;;;2.50;;
24901;SDS011;31328;51.402;0.016;2022-10-30T02:10:48;8.75;;;2.10;;
24901;SDS011;31328;51.402;0.016;2022-10-30T02:13:27;11.50;;;2.78;;
24901;SDS011;31328;51.402;0.016;2022-10-30T02:15:54;10.13;;;2.08;;
24901;SDS011;31328;51.402;0.016;2022-10-30T02:18:21;9.82;;;1.90;;
24901;SDS011;31328;51.402;0.016;2022-10-30T02:20:47;9.07;;;1.95;;
24901;SDS011;31328;51.402;0.016;2022-10-30T02:23:14;5.55;;;2.15;;
24901;SDS011;31328;51.402;0.016;2022-10-30T02:25:44;10.05;;;1.92;;
24901;SDS011;31328;51.402;0.016;2022-10-30T02:28:11;11.20;;;2.72;;
24901;SDS011;31328;51.402;0.016;2022-10-30T02:30:37;12.90;;;2.22;;
24901;SDS011;31328;51.402;0.016;2022-10-30T02:33:05;7.47;;;1.60;;
24901;SDS011;31328;51.402;0.016;2022-10-30T02:35:31;10.10;;;1.98;;
24901;SDS011;31328;51.402;0.016;2022-10-30T02:38:00;7.40;;;1.33;;
24901;SDS011;31328;51.402;0.016;2022-10-30T02:40:27;8.05;;;2.17;;
24901;SDS011;31328;51.402;0.016;2022-10-30T02:42:55;8.52;;;2.08;;
24901;SDS011;31328;51.402;0.016;2022-10-30T02:45:21;11.07;;;2.13;;
24901;SDS011;31328;51.402;0.016;2022-10-30T02:47:48;10.50;;;1.80;;
24901;SDS011;31328;51.402;0.016;2022-10-30T02:50:14;8.43;;;1.70;;
24901;SDS011;31328;51.402;0.016;2022-10-30T02:52:41;6.45;;;1.40;;
24901;SDS011;31328;51.402;0.016;2022-10-30T02:55:08;8.88;;;1.77;;
24901;SDS011;31328;51.402;0.016;2022-10-30T02:57:35;6.93;;;1.73;;
24901;SDS011;31328;51.402;0.016;2022-10-30T03:00:02;11.27;;;2.28;;
24901;SDS011;31328;51.402;0.016;2022-10-30T03:02:29;9.63;;;1.85;;
24901;SDS011;31328;51.402;0.016;2022-10-30T03:04:56;9.40;;;1.67;;
24901;SDS011;31328;51.402;0.016;2022-10-30T03:07:22;11.15;;;2.60;;
24901;SDS011;31328;51.402;0.016;2022-10-30T03:09:49;7.28;;;1.52;;
24901;SDS011;31328;51.402;0.016;2022-10-30T03:12:16;11.38;;;1.80;;
24901;SDS011;31328;51.402;0.016;2022-10-30T03:14:44;7.72;;;1.40;;
24901;SDS011;31328;51.402;0.016;2022-10-30T03:17:10;11.20;;;2.10;;
24901;SDS011;31328;51.402;0.016;2022-10-30T03:19:38;9.40;;;1.80;;
24901;SDS011;31328;51.402;0.016;2022-10-30T03:22:06;8.65;;;1.80;;
24901;SDS011;31328;51.402;0.016;2022-10-30T03:24:32;9.27;;;2.65;;
24901;SDS011;31328;51.402;0.016;2022-10-30T03:26:58;8.13;;;2.30;;
24901;SDS011;31328;51.402;0.016;2022-10-30T03:29:25;7.95;;;1.60;;
24901;SDS011;31328;51.402;0.016;2022-10-30T03:31:51;9.85;;;1.80;;
24901;SDS011;31328;51.402;0.016;2022-10-30T03:34:18;6.50;;;2.45;;
24901;SDS011;31328;51.402;0.016;2022-10-30T03:36:44;10.35;;;1.58;;
24901;SDS011;31328;51.402;0.016;2022-10-30T03:39:12;12.80;;;1.88;;
24901;SDS011;31328;51.402;0.016;2022-10-30T03:41:41;8.85;;;2.17;;
24901;SDS011;31328;51.402;0.016;2022-10-30T03:44:08;12.10;;;2.30;;
24901;SDS011;31328;51.402;0.016;2022-10-30T03:46:34;12.15;;;2.47;;
24901;SDS011;31328;51.402;0.016;2022-10-30T03:49:14;12.18;;;1.83;;
24901;SDS011;31328;51.402;0.016;2022-10-30T03:51:41;6.97;;;1.42;;
24901;SDS011;31328;51.402;0.016;2022-10-30T03:54:07;9.48;;;1.73;;
24901;SDS011;31328;51.402;0.016;2022-10-30T03:56:34;9.77;;;2.00;;
24901;SDS011;31328;51.402;0.016;2022-10-30T03:59:02;10.43;;;1.73;;
24901;SDS011;31328;51.402;0.016;2022-10-30T04:01:29;15.85;;;2.05;;
24901;SDS011;31328;51.402;0.016;2022-10-30T04:03:56;11.27;;;2.25;;
24901;SDS011;31328;51.402;0.016;2022-10-30T04:06:24;9.25;;;1.80;;
24901;SDS011;31328;51.402;0.016;2022-10-30T04:08:52;11.38;;;2.50;;
24901;SDS011;31328;51.402;0.016;2022-10-30T04:11:19;11.95;;;1.92;;
24901;SDS011;31328;51.402;0.016;2022-10-30T04:13:46;11.90;;;2.13;;
24901;SDS011;31328;51.402;0.016;2022-10-30T04:16:12;10.45;;;1.77;;
24901;SDS011;31328;51.402;0.016;2022-10-30T04:18:39;4.53;;;1.40;;
24901;SDS011;31328;51.402;0.016;2022-10-30T04:21:06;10.27;;;2.08;;
24901;SDS011;31328;51.402;0.016;2022-10-30T04:23:34;6.78;;;2.35;;
24901;SDS011;31328;51.402;0.016;2022-10-30T04:26:01;11.13;;;2.55;;
24901;SDS011;31328;51.402;0.016;2022-10-30T04:28:27;6.82;;;1.90;;
24901;SDS011;31328;51.402;0.016;2022-10-30T04:30:55;15.30;;;3.97;;
24901;SDS011;31328;51.402;0.016;2022-10-30T04:33:21;10.57;;;2.13;;
24901;SDS011;31328;51.402;0.016;2022-10-30T04:35:48;12.10;;;2.65;;
24901;SDS011;31328;51.402;0.016;2022-10-30T04:38:17;7.13;;;2.10;;
24901;SDS011;31328;51.402;0.016;2022-10-30T04:40:44;9.38;;;2.10;;
24901;SDS011;31328;51.402;0.016;2022-10-30T04:43:12;9.90;;;1.67;;
24901;SDS011;31328;51.402;0.016;2022-10-30T04:45:39;8.88;;;1.83;;
24901;SDS011;31328;51.402;0.016;2022-10-30T04:48:10;8.88;;;2.20;;
24901;SDS011;31328;51.402;0.016;2022-10-30T04:50:42;8.82;;;1.52;;
24901;SDS011;31328;51.402;0.016;2022-10-30T04:53:13;8.02;;;1.60;;
24901;SDS011;31328;51.402;0.016;2022-10-30T04:55:41;12.45;;;2.08;;
24901;SDS011;31328;51.402;0.016;2022-10-30T04:58:10;9.98;;;2.80;;
24901;SDS011;31328;51.402;0.016;2022-10-30T05:00:38;8.73;;;1.77;;
24901;SDS011;31328;51.402;0.016;2022-10-30T05:03:18;10.43;;;2.08;;
24901;SDS011;31328;51.402;0.016;2022-10-30T05:08:25;11.73;;;2.28;;
24901;SDS011;31328;51.402;0.016;2022-10-30T05:10:52;8.77;;;2.35;;
24901;SDS011;31328;51.402;0.016;2022-10-30T05:13:19;13.52;;;1.92;;
24901;SDS011;31328;51.402;0.016;2022-10-30T05:15:46;13.20;;;2.38;;
24901;SDS011;31328;51.402;0.016;2022-10-30T05:18:13;13.85;;;2.45;;
24901;SDS011;31328;51.402;0.016;2022-10-30T05:20:39;13.95;;;2.33;;
24901;SDS011;31328;51.402;0.016;2022-10-30T05:23:08;9.25;;;2.00;;
24901;SDS011;31328;51.402;0.016;2022-10-30T05:25:34;11.60;;;2.20;;
24901;SDS011;31328;51.402;0.016;2022-10-30T05:28:03;16.30;;;3.22;;
24901;SDS011;31328;51.402;0.016;2022-10-30T05:30:36;8.68;;;2.40;;
24901;SDS011;31328;51.402;0.016;2022-10-30T05:33:09;11.70;;;2.20;;
24901;SDS011;31328;51.402;0.016;2022-10-30T05:35:37;9.65;;;1.83;;
24901;SDS011;31328;51.402;0.016;2022-10-30T05:38:05;9.32;;;2.17;;
24901;SDS011;31328;51.402;0.016;2022-10-30T05:40:32;11.10;;;2.30;;
24901;SDS011;31328;51.402;0.016;2022-10-30T05:42:59;10.93;;;2.10;;
24901;SDS011;31328;51.402;0.016;2022-10-30T05:45:26;9.90;;;2.25;;
24901;SDS011;31328;51.402;0.016;2022-10-30T05:47:56;10.35;;;2.45;;
24901;SDS011;31328;51.402;0.016;2022-10-30T05:50:34;17.25;;;2.53;;
24901;SDS011;31328;51.402;0.016;2022-10-30T05:53:35;10.07;;;2.58;;
24901;SDS011;31328;51.402;0.016;2022-10-30T05:56:02;10.20;;;2.28;;
24901;SDS011;31328;51.402;0.016;2022-10-30T05:58:32;6.53;;;1.98;;
24901;SDS011;31328;51.402;0.016;2022-10-30T06:01:05;13.60;;;2.42;;
24901;SDS011;31328;51.402;0.016;2022-10-30T06:03:42;8.40;;;2.08;;
24901;SDS011;31328;51.402;0.016;2022-10-30T06:06:10;15.02;;;2.40;;
24901;SDS011;31328;51.402;0.016;2022-10-30T06:08:36;11.25;;;1.65;;
24901;SDS011;31328;51.402;0.016;2022-10-30T06:11:23;13.93;;;2.50;;
24901;SDS011;31328;51.402;0.016;2022-10-30T06:13:53;8.90;;;2.05;;
24901;SDS011;31328;51.402;0.016;2022-10-30T06:16:30;10.80;;;3.08;;
24901;SDS011;31328;51.402;0.016;2022-10-30T06:19:07;11.52;;;2.15;;
24901;SDS011;31328;51.402;0.016;2022-10-30T06:21:33;14.05;;;2.30;;
24901;SDS011;31328;51.402;0.016;2022-10-30T06:24:18;13.85;;;2.90;;
24901;SDS011;31328;51.402;0.016;2022-10-30T06:29:29;8.70;;;2.22;;
24901;SDS011;31328;51.402;0.016;2022-10-30T06:31:55;12.50;;;2.60;;
24901;SDS011;31328;51.402;0.016;2022-10-30T06:34:22;14.45;;;2.40;;
24901;SDS011;31328;51.402;0.016;2022-10-30T06:36:50;14.48;;;3.78;;
24901;SDS011;31328;51.402;0.016;2022-10-30T06:39:16;14.15;;;2.35;;
24901;SDS011;31328;51.402;0.016;2022-10-30T06:41:57;11.52;;;2.95;;
24901;SDS011;31328;51.402;0.016;2022-10-30T06:44:42;17.92;;;2.47;;
24901;SDS011;31328;51.402;0.016;2022-10-30T06:47:08;11.10;;;1.90;;
24901;SDS011;31328;51.402;0.016;2022-10-30T06:49:35;12.27;;;2.60;;
24901;SDS011;31328;51.402;0.016;2022-10-30T06:52:02;7.68;;;2.00;;
24901;SDS011;31328;51.402;0.016;2022-10-30T06:54:29;11.13;;;2.20;;
24901;SDS011;31328;51.402;0.016;2022-10-30T06:57:00;10.00;;;2.42;;
24901;SDS011;31328;51.402;0.016;2022-10-30T07:02:22;9.77;;;3.17;;
24901;SDS011;31328;51.402;0.016;2022-10-30T07:05:03;9.38;;;2.67;;
24901;SDS011;31328;51.402;0.016;2022-10-30T07:07:30;12.48;;;2.03;;
24901;SDS011;31328;51.402;0.016;2022-10-30T07:09:57;6.78;;;1.83;;
24901;SDS011;31328;51.402;0.016;2022-10-30T07:12:41;8.43;;;1.40;;
24901;SDS011;31328;51.402;0.016;2022-10-30T07:15:21;8.80;;;2.60;;
24901;SDS011;31328;51.402;0.016;2022-10-30T07:18:06;8.63;;;2.00;;
24901;SDS011;31328;51.402;0.016;2022-10-30T07:20:36;12.88;;;1.83;;
24901;SDS011;31328;51.402;0.016;2022-10-30T07:23:03;11.05;;;2.10;;
24901;SDS011;31328;51.402;0.016;2022-10-30T07:25:31;10.30;;;1.80;;
24901;SDS011;31328;51.402;0.016;2022-10-30T07:28:06;8.05;;;2.42;;
24901;SDS011;31328;51.402;0.016;2022-10-30T07:30:36;9.25;;;2.10;;
24901;SDS011;31328;51.402;0.016;2022-10-30T07:33:21;7.35;;;1.40;;
24901;SDS011;31328;51.402;0.016;2022-10-30T07:36:01;11.77;;;1.90;;
24901;SDS011;31328;51.402;0.016;2022-10-30T07:38:48;11.80;;;1.85;;
24901;SDS011;31328;51.402;0.016;2022-10-30T07:41:32;9.00;;;1.77;;
24901;SDS011;31328;51.402;0.016;2022-10-30T07:44:17;9.38;;;2.15;;
24901;SDS011;31328;51.402;0.016;2022-10-30T07:46:53;9.05;;;2.65;;
24901;SDS011;31328;51.402;0.016;2022-10-30T07:49:52;13.15;;;2.00;;
24901;SDS011;31328;51.402;0.016;2022-10-30T07:52:18;10.85;;;1.48;;
24901;SDS011;31328;51.402;0.016;2022-10-30T07:54:47;10.60;;;2.90;;
24901;SDS011;31328;51.402;0.016;2022-10-30T07:57:40;13.40;;;2.97;;
24901;SDS011;31328;51.402;0.016;2022-10-30T08:00:26;8.93;;;1.65;;
24901;SDS011;31328;51.402;0.016;2022-10-30T08:03:02;12.52;;;1.80;;
24901;SDS011;31328;51.402;0.016;2022-10-30T08:05:47;8.18;;;2.22;;
24901;SDS011;31328;51.402;0.016;2022-10-30T08:08:19;12.18;;;2.03;;
24901;SDS011;31328;51.402;0.016;2022-10-30T08:10:54;12.68;;;2.20;;
24901;SDS011;31328;51.402;0.016;2022-10-30T08:13:20;11.70;;;2.10;;
24901;SDS011;31328;51.402;0.016;2022-10-30T08:15:46;13.15;;;2.03;;
24901;SDS011;31328;51.402;0.016;2022-10-30T08:18:14;12.02;;;1.92;;
24901;SDS011;31328;51.402;0.016;2022-10-30T08:20:42;12.07;;;2.20;;
24901;SDS011;31328;51.402;0.016;2022-10-30T08:23:13;8.50;;;1.50;;
24901;SDS011;31328;51.402;0.016;2022-10-30T08:25:42;6.93;;;1.63;;
24901;SDS011;31328;51.402;0.016;2022-10-30T08:28:08;9.07;;;1.77;;
24901;SDS011;31328;51.402;0.016;2022-10-30T08:30:36;7.65;;;1.60;;
24901;SDS011;31328;51.402;0.016;2022-10-30T08:33:05;11.75;;;2.40;;
24901;SDS011;31328;51.402;0.016;2022-10-30T08:35:54;11.85;;;2.03;;
24901;SDS011;31328;51.402;0.016;2022-10-30T08:38:21;8.07;;;1.83;;
24901;SDS011;31328;51.402;0.016;2022-10-30T08:41:01;8.02;;;1.83;;
24901;SDS011;31328;51.402;0.016;2022-10-30T08:43:29;11.77;;;1.85;;
24901;SDS011;31328;51.402;0.016;2022-10-30T08:45:58;8.15;;;1.60;;
24901;SDS011;31328;51.402;0.016;2022-10-30T08:48:25;6.82;;;1.42;;
24901;SDS011;31328;51.402;0.016;2022-10-30T08:50:56;12.23;;;1.65;;
24901;SDS011;31328;51.402;0.016;2022-10-30T08:53:28;11.43;;;1.63;;
24901;SDS011;31328;51.402;0.016;2022-10-30T08:55:54;9.80;;;1.42;;
24901;SDS011;31328;51.402;0.016;2022-10-30T08:58:30;6.72;;;1.15;;
24901;SDS011;31328;51.402;0.016;2022-10-30T09:00:57;10.57;;;1.50;;
24901;SDS011;31328;51.402;0.016;2022-10-30T09:03:42;10.88;;;2.08;;
24901;SDS011;31328;51.402;0.016;2022-10-30T09:06:31;8.38;;;1.50;;
24901;SDS011;31328;51.402;0.016;2022-10-30T09:09:29;7.25;;;1.55;;
24901;SDS011;31328;51.402;0.016;2022-10-30T09:11:59;9.77;;;1.17;;
24901;SDS011;31328;51.402;0.016;2022-10-30T09:14:26;8.38;;;1.42;;
24901;SDS011;31328;51.402;0.016;2022-10-30T09:16:55;7.93;;;1.80;;
24901;SDS011;31328;51.402;0.016;2022-10-30T09:19:22;8.43;;;1.42;;
24901;SDS011;31328;51.402;0.016;2022-10-30T09:21:49;5.70;;;1.55;;
24901;SDS011;31328;51.402;0.016;2022-10-30T09:24:16;9.38;;;1.40;;
24901;SDS011;31328;51.402;0.016;2022-10-30T09:26:42;6.45;;;1.30;;
24901;SDS011;31328;51.402;0.016;2022-10-30T09:29:22;8.55;;;1.55;;
24901;SDS011;31328;51.402;0.016;2022-10-30T09:31:58;6.97;;;2.05;;
24901;SDS011;31328;51.402;0.016;2022-10-30T09:34:28;12.38;;;1.83;;
24901;SDS011;31328;51.402;0.016;2022-10-30T09:37:18;5.90;;;1.27;;
24901;SDS011;31328;51.402;0.016;2022-10-30T09:39:50;5.75;;;1.40;;
24901;SDS011;31328;51.402;0.016;2022-10-30T09:42:23;4.20;;;1.50;;
24901;SDS011;31328;51.402;0.016;2022-10-30T09:47:42;6.57;;;1.35;;
24901;SDS011;31328;51.402;0.016;2022-10-30T09:53:26;8.43;;;1.13;;
24901;SDS011;31328;51.402;0.016;2022-10-30T09:56:08;8.82;;;1.48;;
24901;SDS011;31328;51.402;0.016;2022-10-30T10:01:35;5.97;;;1.50;;
24901;SDS011;31328;51.402;0.016;2022-10-30T10:06:46;6.78;;;1.30;;
24901;SDS011;31328;51.402;0.016;2022-10-30T10:09:38;6.28;;;1.67;;
24901;SDS011;31328;51.402;0.016;2022-10-30T10:12:34;7.88;;;1.60;;
24901;SDS011;31328;51.402;0.016;2022-10-30T10:15:04;7.00;;;1.60;;
24901;SDS011;31328;51.402;0.016;2022-10-30T10:17:54;5.07;;;1.15;;
24901;SDS011;31328;51.402;0.016;2022-10-30T10:23:19;4.35;;;1.10;;
24901;SDS011;31328;51.402;0.016;2022-10-30T10:34:40;3.22;;;0.70;;
24901;SDS011;31328;51.402;0.016;2022-10-30T10:50:45;3.50;;;1.60;;
24901;SDS011;31328;51.402;0.016;2022-10-30T10:56:13;5.70;;;1.17;;
24901;SDS011;31328;51.402;0.016;2022-10-30T10:58:49;4.72;;;1.60;;
24901;SDS011;31328;51.402;0.016;2022-10-30T11:01:20;9.35;;;1.98;;
24901;SDS011;31328;51.402;0.016;2022-10-30T11:04:03;7.40;;;1.17;;
24901;SDS011;31328;51.402;0.016;2022-10-30T11:06:39;4.35;;;0.90;;
24901;SDS011;31328;51.402;0.016;2022-10-30T11:09:15;8.52;;;1.02;;
24901;SDS011;31328;51.402;0.016;2022-10-30T11:11:46;6.35;;;1.10;;
24901;SDS011;31328;51.402;0.016;2022-10-30T11:14:15;4.72;;;1.13;;
24901;SDS011;31328;51.402;0.016;2022-10-30T11:19:16;5.97;;;0.98;;
24901;SDS011;31328;51.402;0.016;2022-10-30T11:21:47;4.10;;;0.90;;
24901;SDS011;31328;51.402;0.016;2022-10-30T11:24:26;5.30;;;1.73;;
24901;SDS011;31328;51.402;0.016;2022-10-30T11:26:55;5.55;;;0.82;;
24901;SDS011;31328;51.402;0.016;2022-10-30T11:29:24;6.20;;;0.80;;
24901;SDS011;31328;51.402;0.016;2022-10-30T11:31:58;7.05;;;2.15;;
24901;SDS011;31328;51.402;0.016;2022-10-30T11:34:28;3.13;;;0.63;;
24901;SDS011;31328;51.402;0.016;2022-10-30T11:37:02;7.72;;;0.98;;
24901;SDS011;31328;51.402;0.016;2022-10-30T11:39:32;7.28;;;1.00;;
24901;SDS011;31328;51.402;0.016;2022-10-30T11:47:03;8.52;;;1.30;;
24901;SDS011;31328;51.402;0.016;2022-10-30T11:51:57;6.88;;;0.82;;
24901;SDS011;31328;51.402;0.016;2022-10-30T11:54:24;5.03;;;1.48;;
24901;SDS011;31328;51.402;0.016;2022-10-30T11:56:51;5.43;;;1.23;;
24901;SDS011;31328;51.402;0.016;2022-10-30T11:59:20;8.98;;;0.90;;
24901;SDS011;31328;51.402;0.016;2022-10-30T12:02:02;4.93;;;0.77;;
24901;SDS011;31328;51.402;0.016;2022-10-30T12:04:45;7.65;;;0.70;;
24901;SDS011;31328;51.402;0.016;2022-10-30T12:07:16;7.47;;;1.52;;
24901;SDS011;31328;51.402;0.016;2022-10-30T12:09:47;3.72;;;0.80;;
24901;SDS011;31328;51.402;0.016;2022-10-30T12:12:25;5.75;;;0.93;;
24901;SDS011;31328;51.402;0.016;2022-10-30T12:17:39;5.05;;;1.00;;
24901;SDS011;31328;51.402;0.016;2022-10-30T12:20:06;3.90;;;0.68;;
24901;SDS011;31328;51.402;0.016;2022-10-30T12:22:38;4.50;;;0.82;;
24901;SDS011;31328;51.402;0.016;2022-10-30T12:27:49;5.00;;;0.82;;
24901;SDS011;31328;51.402;0.016;2022-10-30T12:30:22;7.40;;;1.40;;
24901;SDS011;31328;51.402;0.016;2022-10-30T12:32:52;3.55;;;0.85;;
24901;SDS011;31328;51.402;0.016;2022-10-30T12:35:43;4.85;;;0.85;;
24901;SDS011;31328;51.402;0.016;2022-10-30T12:40:55;6.53;;;0.90;;
24901;SDS011;31328;51.402;0.016;2022-10-30T12:43:42;4.18;;;1.00;;
24901;SDS011;31328;51.402;0.016;2022-10-30T12:49:10;2.33;;;0.75;;
24901;SDS011;31328;51.402;0.016;2022-10-30T12:54:34;5.10;;;0.90;;
24901;SDS011;31328;51.402;0.016;2022-10-30T12:57:06;5.80;;;1.63;;
24901;SDS011;31328;51.402;0.016;2022-10-30T13:05:38;9.15;;;1.80;;
24901;SDS011;31328;51.402;0.016;2022-10-30T13:11:26;7.68;;;1.50;;
24901;SDS011;31328;51.402;0.016;2022-10-30T13:14:00;5.55;;;1.60;;
24901;SDS011;31328;51.402;0.016;2022-10-30T13:16:29;9.10;;;1.40;;
24901;SDS011;31328;51.402;0.016;2022-10-30T13:18:58;6.65;;;2.53;;
24901;SDS011;31328;51.402;0.016;2022-10-30T13:21:27;7.88;;;1.50;;
24901;SDS011;31328;51.402;0.016;2022-10-30T13:24:13;6.90;;;1.40;;
24901;SDS011;31328;51.402;0.016;2022-10-30T13:26:46;5.88;;;1.67;;
24901;SDS011;31328;51.402;0.016;2022-10-30T13:37:56;4.07;;;1.40;;
24901;SDS011;31328;51.402;0.016;2022-10-30T13:51:25;6.10;;;1.30;;
24901;SDS011;31328;51.402;0.016;2022-10-30T13:56:35;7.55;;;1.63;;
24901;SDS011;31328;51.402;0.016;2022-10-30T13:59:15;7.05;;;1.20;;
24901;SDS011;31328;51.402;0.016;2022-10-30T14:07:36;5.95;;;1.63;;
24901;SDS011;31328;51.402;0.016;2022-10-30T14:12:49;5.25;;;1.15;;
24901;SDS011;31328;51.402;0.016;2022-10-30T14:15:31;5.35;;;1.38;;
24901;SDS011;31328;51.402;0.016;2022-10-30T14:23:10;8.20;;;1.25;;
24901;SDS011;31328;51.402;0.016;2022-10-30T14:25:40;4.78;;;0.88;;
24901;SDS011;31328;51.402;0.016;2022-10-30T14:28:17;3.88;;;0.98;;
24901;SDS011;31328;51.402;0.016;2022-10-30T14:30:47;7.28;;;1.38;;
24901;SDS011;31328;51.402;0.016;2022-10-30T14:36:12;4.88;;;0.80;;
24901;SDS011;31328;51.402;0.016;2022-10-30T14:38:39;6.32;;;1.10;;
24901;SDS011;31328;51.402;0.016;2022-10-30T14:41:14;7.35;;;1.20;;
24901;SDS011;31328;51.402;0.016;2022-10-30T14:46:35;4.38;;;1.20;;
24901;SDS011;31328;51.402;0.016;2022-10-30T14:52:50;4.82;;;0.95;;
24901;SDS011;31328;51.402;0.016;2022-10-30T14:58:12;6.57;;;1.60;;
24901;SDS011;31328;51.402;0.016;2022-10-30T15:00:45;6.88;;;1.33;;
24901;SDS011;31328;51.402;0.016;2022-10-30T15:05:50;4.55;;;1.42;;
24901;SDS011;31328;51.402;0.016;2022-10-30T15:08:32;9.23;;;1.55;;
24901;SDS011;31328;51.402;0.016;2022-10-30T15:13:45;7.32;;;1.23;;
24901;SDS011;31328;51.402;0.016;2022-10-30T15:16:25;7.10;;;1.45;;
24901;SDS011;31328;51.402;0.016;2022-10-30T15:19:03;5.97;;;1.00;;
24901;SDS011;31328;51.402;0.016;2022-10-30T15:21:34;5.50;;;0.98;;
24901;SDS011;31328;51.402;0.016;2022-10-30T15:24:07;5.85;;;1.27;;
24901;SDS011;31328;51.402;0.016;2022-10-30T15:26:49;4.68;;;1.40;;
24901;SDS011;31328;51.402;0.016;2022-10-30T15:29:23;4.45;;;1.30;;
24901;SDS011;31328;51.402;0.016;2022-10-30T15:34:29;5.85;;;1.35;;
24901;SDS011;31328;51.402;0.016;2022-10-30T15:36:56;11.30;;;1.80;;
24901;SDS011;31328;51.402;0.016;2022-10-30T15:39:23;7.88;;;1.13;;
24901;SDS011;31328;51.402;0.016;2022-10-30T15:41:53;7.22;;;2.10;;
24901;SDS011;31328;51.402;0.016;2022-10-30T15:44:26;7.13;;;0.95;;
24901;SDS011;31328;51.402;0.016;2022-10-30T15:46:55;3.50;;;1.10;;
24901;SDS011;31328;51.402;0.016;2022-10-30T15:49:32;3.97;;;1.02;;
24901;SDS011;31328;51.402;0.016;2022-10-30T15:54:37;8.70;;;1.52;;
24901;SDS011;31328;51.402;0.016;2022-10-30T15:57:10;6.80;;;1.40;;
24901;SDS011;31328;51.402;0.016;2022-10-30T15:59:46;7.78;;;1.60;;
24901;SDS011;31328;51.402;0.016;2022-10-30T16:02:18;4.90;;;1.45;;
24901;SDS011;31328;51.402;0.016;2022-10-30T16:04:47;7.00;;;1.50;;
24901;SDS011;31328;51.402;0.016;2022-10-30T16:07:15;5.70;;;1.70;;
24901;SDS011;31328;51.402;0.016;2022-10-30T16:09:50;9.30;;;1.42;;
24901;SDS011;31328;51.402;0.016;2022-10-30T16:12:17;9.65;;;1.20;;
24901;SDS011;31328;51.402;0.016;2022-10-30T16:14:43;6.93;;;1.50;;
24901;SDS011;31328;51.402;0.016;2022-10-30T16:17:10;9.73;;;3.88;;
24901;SDS011;31328;51.402;0.016;2022-10-30T16:19:42;5.18;;;1.13;;
24901;SDS011;31328;51.402;0.016;2022-10-30T16:22:15;6.35;;;1.40;;
24901;SDS011;31328;51.402;0.016;2022-10-30T16:24:48;4.45;;;1.05;;
24901;SDS011;31328;51.402;0.016;2022-10-30T16:27:16;9.50;;;1.92;;
24901;SDS011;31328;51.402;0.016;2022-10-30T16:29:45;4.57;;;1.40;;
24901;SDS011;31328;51.402;0.016;2022-10-30T16:32:15;7.47;;;1.63;;
24901;SDS011;31328;51.402;0.016;2022-10-30T16:34:46;5.22;;;1.85;;
24901;SDS011;31328;51.402;0.016;2022-10-30T16:37:16;7.47;;;1.58;;
24901;SDS011;31328;51.402;0.016;2022-10-30T16:39:46;5.35;;;1.17;;
24901;SDS011;31328;51.402;0.016;2022-10-30T16:42:18;8.18;;;1.92;;
24901;SDS011;31328;51.402;0.016;2022-10-30T16:44:46;7.20;;;1.63;;
24901;SDS011;31328;51.402;0.016;2022-10-30T16:49:50;7.03;;;1.50;;
24901;SDS011;31328;51.402;0.016;2022-10-30T16:52:21;7.22;;;1.65;;
24901;SDS011;31328;51.402;0.016;2022-10-30T16:55:01;6.20;;;1.50;;
24901;SDS011;31328;51.402;0.016;2022-10-30T16:57:36;10.48;;;2.08;;
24901;SDS011;31328;51.402;0.016;2022-10-30T17:00:24;6.22;;;1.85;;
24901;SDS011;31328;51.402;0.016;2022-10-30T17:02:52;4.90;;;1.40;;
24901;SDS011;31328;51.402;0.016;2022-10-30T17:10:34;7.38;;;1.85;;
24901;SDS011;31328;51.402;0.016;2022-10-30T17:15:58;9.13;;;2.60;;
24901;SDS011;31328;51.402;0.016;2022-10-30T17:18:44;8.27;;;2.08;;
24901;SDS011;31328;51.402;0.016;2022-10-30T17:21:12;10.73;;;2.75;;
24901;SDS011;31328;51.402;0.016;2022-10-30T17:23:44;8.13;;;2.25;;
24901;SDS011;31328;51.402;0.016;2022-10-30T17:26:13;7.90;;;2.00;;
24901;SDS011;31328;51.402;0.016;2022-10-30T17:28:41;8.55;;;2.20;;
24901;SDS011;31328;51.402;0.016;2022-10-30T17:36:41;4.88;;;1.60;;
24901;SDS011;31328;51.402;0.016;2022-10-30T17:39:07;7.30;;;1.75;;
24901;SDS011;31328;51.402;0.016;2022-10-30T17:41:34;8.50;;;2.05;;
24901;SDS011;31328;51.402;0.016;2022-10-30T17:44:00;8.07;;;2.38;;
24901;SDS011;31328;51.402;0.016;2022-10-30T17:46:28;6.22;;;1.67;;
24901;SDS011;31328;51.402;0.016;2022-10-30T17:48:55;11.68;;;2.67;;
24901;SDS011;31328;51.402;0.016;2022-10-30T17:51:22;6.60;;;1.50;;
24901;SDS011;31328;51.402;0.016;2022-10-30T17:53:49;9.23;;;1.40;;
24901;SDS011;31328;51.402;0.016;2022-10-30T17:56:19;4.82;;;1.38;;
24901;SDS011;31328;51.402;0.016;2022-10-30T17:58:57;6.78;;;1.45;;
24901;SDS011;31328;51.402;0.016;2022-10-30T18:01:24;4.97;;;1.33;;
24901;SDS011;31328;51.402;0.016;2022-10-30T18:03:52;6.63;;;1.63;;
24901;SDS011;31328;51.402;0.016;2022-10-30T18:06:23;8.80;;;3.08;;
24901;SDS011;31328;51.402;0.016;2022-10-30T18:08:51;5.72;;;2.42;;